createdAt,value
2022-11-05T00:02:24.628Z,1.10
2022-11-05T00:05:22.466Z,0.80
2022-11-05T00:08:26.333Z,0.90
2022-11-05T00:11:13.820Z,0.80
2022-11-05T00:14:20.822Z,1.10
2022-11-05T00:17:02.724Z,1.10
2022-11-05T00:19:45.793Z,1.00
2022-11-05T00:22:44.803Z,0.80
2022-11-05T00:25:29.233Z,0.80
2022-11-05T00:28:11.795Z,0.90
2022-11-05T00:30:54.417Z,0.80
2022-11-05T00:33:35.730Z,0.70
2022-11-05T00:36:21.143Z,0.90
2022-11-05T00:39:01.886Z,1.20
2022-11-05T00:42:15.265Z,0.90
2022-11-05T00:45:06.752Z,0.80
2022-11-05T00:48:10.959Z,0.70
2022-11-05T00:50:49.120Z,1.00
2022-11-05T00:53:39.691Z,0.60
2022-11-05T00:56:25.028Z,0.60
2022-11-05T00:59:08.590Z,0.60
2022-11-05T01:01:53.672Z,0.70
2022-11-05T01:04:44.262Z,0.80
2022-11-05T01:07:31.402Z,0.70
2022-11-05T01:10:19.826Z,0.80
2022-11-05T01:13:00.788Z,0.60
2022-11-05T01:15:47.596Z,0.60
2022-11-05T01:18:30.000Z,0.70
2022-11-05T01:21:19.690Z,0.70
2022-11-05T01:24:04.837Z,0.80
2022-11-05T01:26:51.758Z,0.50
2022-11-05T01:29:36.351Z,0.50
2022-11-05T01:32:27.622Z,0.60
2022-11-05T01:35:08.895Z,0.50
2022-11-05T01:37:51.457Z,0.50
2022-11-05T01:40:37.397Z,0.80
2022-11-05T01:43:28.354Z,0.90
2022-11-05T01:46:10.208Z,0.60
2022-11-05T01:49:02.725Z,0.70
2022-11-05T01:51:45.647Z,0.80
2022-11-05T01:54:29.472Z,0.40
2022-11-05T01:57:16.590Z,0.60
2022-11-05T02:00:04.116Z,0.50
2022-11-05T02:02:52.852Z,0.90
2022-11-05T02:05:39.569Z,0.70
2022-11-05T02:08:51.015Z,0.70
2022-11-05T02:11:39.595Z,0.80
2022-11-05T02:14:24.850Z,0.60
2022-11-05T02:17:15.685Z,0.70
2022-11-05T02:20:26.171Z,0.80
2022-11-05T02:23:49.663Z,0.90
2022-11-05T02:26:37.808Z,0.60
2022-11-05T02:29:51.068Z,0.80
2022-11-05T02:35:33.212Z,0.60
2022-11-05T02:38:22.686Z,0.60
2022-11-05T02:41:20.562Z,0.70
2022-11-05T02:44:24.219Z,1.00
2022-11-05T02:47:23.567Z,0.70
2022-11-05T02:50:19.226Z,0.90
2022-11-05T02:53:12.503Z,0.60
2022-11-05T02:56:06.919Z,0.70
2022-11-05T02:58:52.632Z,0.70
2022-11-05T03:01:27.276Z,0.50
2022-11-05T03:04:07.747Z,0.60
2022-11-05T03:06:54.385Z,0.80
2022-11-05T03:09:50.926Z,0.90
2022-11-05T03:13:01.955Z,0.70
2022-11-05T03:15:52.780Z,0.90
2022-11-05T03:18:43.184Z,1.10
2022-11-05T03:22:05.256Z,0.90
2022-11-05T03:24:54.231Z,0.90
2022-11-05T03:27:50.016Z,0.90
2022-11-05T03:30:36.862Z,0.80
2022-11-05T03:33:25.862Z,1.20
2022-11-05T03:36:12.308Z,1.10
2022-11-05T03:38:58.183Z,1.00
2022-11-05T03:41:48.797Z,1.00
2022-11-05T03:44:44.012Z,0.90
2022-11-05T03:47:34.277Z,1.10
2022-11-05T03:50:28.383Z,1.10
2022-11-05T03:53:25.347Z,1.40
2022-11-05T03:56:24.821Z,1.00
2022-11-05T03:59:07.026Z,1.30
2022-11-05T04:01:43.391Z,1.20
2022-11-05T04:04:20.496Z,1.00
2022-11-05T04:07:25.326Z,1.20
2022-11-05T04:10:28.271Z,1.30
2022-11-05T04:13:30.751Z,1.60
2022-11-05T04:16:39.368Z,1.30
2022-11-05T04:19:40.565Z,1.00
2022-11-05T04:22:43.819Z,1.40
2022-11-05T04:25:28.499Z,1.40
2022-11-05T04:28:09.954Z,1.30
2022-11-05T04:30:53.895Z,1.50
2022-11-05T04:33:33.403Z,1.70
2022-11-05T04:36:15.912Z,1.40
2022-11-05T04:38:58.172Z,1.30
2022-11-05T04:41:44.826Z,1.50
2022-11-05T04:44:24.017Z,1.60
2022-11-05T04:49:51.265Z,1.60
2022-11-05T04:52:32.606Z,1.70
2022-11-05T04:55:15.969Z,1.80
2022-11-05T04:58:02.529Z,2.50
2022-11-05T05:00:43.756Z,1.60
2022-11-05T05:03:25.710Z,1.80
2022-11-05T05:06:07.101Z,2.40
2022-11-05T05:08:57.013Z,1.80
2022-11-05T05:11:37.074Z,1.40
2022-11-05T05:14:18.514Z,1.60
2022-11-05T05:17:07.479Z,1.20
2022-11-05T05:20:11.904Z,1.20
2022-11-05T05:22:58.886Z,3.90
2022-11-05T05:25:40.874Z,2.50
2022-11-05T05:28:30.444Z,2.40
2022-11-05T05:31:20.548Z,1.60
2022-11-05T05:33:59.989Z,1.80
2022-11-05T05:36:42.500Z,1.20
2022-11-05T05:39:19.507Z,1.20
2022-11-05T05:42:02.443Z,1.50
2022-11-05T05:44:47.329Z,1.60
2022-11-05T05:47:33.683Z,1.20
2022-11-05T05:50:15.371Z,1.20
2022-11-05T05:53:01.570Z,1.40
2022-11-05T05:55:56.434Z,1.70
2022-11-05T05:58:42.423Z,2.00
2022-11-05T06:01:25.821Z,1.40
2022-11-05T06:04:09.125Z,1.40
2022-11-05T06:06:52.801Z,1.80
2022-11-05T06:09:35.458Z,1.70
2022-11-05T06:12:16.848Z,2.10
2022-11-05T06:15:06.247Z,2.50
2022-11-05T06:20:42.524Z,2.10
2022-11-05T06:23:30.575Z,2.00
2022-11-05T06:26:13.325Z,2.10
2022-11-05T06:28:59.116Z,1.80
2022-11-05T06:31:43.753Z,2.30
2022-11-05T06:34:26.174Z,2.40
2022-11-05T06:37:07.378Z,1.90
2022-11-05T06:39:48.614Z,1.60
2022-11-05T06:42:30.586Z,2.20
2022-11-05T06:45:13.706Z,1.90
2022-11-05T06:48:02.077Z,1.90
2022-11-05T06:50:45.950Z,2.30
2022-11-05T06:53:25.323Z,2.10
2022-11-05T06:56:10.200Z,2.40
2022-11-05T06:58:52.023Z,2.10
2022-11-05T07:01:35.726Z,2.50
2022-11-05T07:04:19.023Z,3.40
2022-11-05T07:06:59.838Z,3.80
2022-11-05T07:09:44.281Z,3.80
2022-11-05T07:12:26.468Z,4.60
2022-11-05T07:15:17.368Z,3.20
2022-11-05T07:18:03.229Z,3.40
2022-11-05T07:20:47.726Z,3.60
2022-11-05T07:23:27.723Z,4.30
2022-11-05T07:26:16.670Z,3.50
2022-11-05T07:28:56.563Z,2.90
2022-11-05T07:31:46.186Z,3.10
2022-11-05T07:34:21.648Z,3.10
2022-11-05T07:37:04.000Z,2.90
2022-11-05T07:39:43.045Z,3.40
2022-11-05T07:42:31.672Z,3.90
2022-11-05T07:45:11.023Z,4.40
2022-11-05T07:48:04.239Z,5.20
2022-11-05T07:50:45.090Z,3.30
2022-11-05T07:53:28.323Z,4.00
2022-11-05T07:56:07.887Z,5.80
2022-11-05T07:58:49.500Z,4.80
2022-11-05T08:01:32.050Z,4.20
2022-11-05T08:04:17.691Z,4.10
2022-11-05T08:06:58.444Z,17.10
2022-11-05T08:09:49.888Z,7.20
2022-11-05T08:12:30.081Z,4.20
2022-11-05T08:15:16.157Z,4.20
2022-11-05T08:18:19.492Z,5.50
2022-11-05T08:20:58.830Z,4.20
2022-11-05T08:23:42.450Z,4.20
2022-11-05T08:26:30.366Z,3.40
2022-11-05T08:29:12.461Z,3.40
2022-11-05T08:31:55.681Z,3.50
2022-11-05T08:34:35.877Z,3.70
2022-11-05T08:37:19.963Z,3.70
2022-11-05T08:40:03.092Z,4.20
2022-11-05T08:42:44.551Z,5.50
2022-11-05T08:45:30.547Z,4.50
2022-11-05T08:48:13.497Z,3.40
2022-11-05T08:50:50.649Z,3.50
2022-11-05T08:53:27.933Z,3.90
2022-11-05T08:56:03.432Z,4.40
2022-11-05T08:58:51.861Z,4.60
2022-11-05T09:01:39.380Z,11.80
2022-11-05T09:04:22.806Z,7.20
2022-11-05T09:07:01.070Z,4.00
2022-11-05T09:10:00.190Z,3.70
2022-11-05T09:12:49.665Z,5.60
2022-11-05T09:15:51.535Z,5.40
2022-11-05T09:18:48.285Z,5.70
2022-11-05T09:21:39.783Z,5.40
2022-11-05T09:24:43.266Z,4.00
2022-11-05T09:27:57.401Z,3.30
2022-11-05T09:31:19.619Z,2.60
2022-11-05T09:34:12.515Z,2.70
2022-11-05T09:37:04.648Z,4.10
2022-11-05T09:39:53.983Z,3.90
2022-11-05T09:43:00.218Z,3.40
2022-11-05T09:46:03.235Z,3.70
2022-11-05T09:48:52.996Z,2.30
2022-11-05T09:52:15.289Z,2.00
2022-11-05T09:55:04.458Z,3.10
2022-11-05T09:58:29.001Z,4.90
2022-11-05T10:00:58.849Z,5.00
2022-11-05T10:03:30.301Z,3.10
2022-11-05T10:06:11.496Z,2.40
2022-11-05T10:08:47.185Z,2.50
2022-11-05T10:11:30.677Z,2.70
2022-11-05T10:14:07.122Z,2.80
2022-11-05T10:16:42.347Z,2.80
2022-11-05T10:19:24.789Z,2.40
2022-11-05T10:22:19.975Z,3.70
2022-11-05T10:24:50.987Z,3.50
2022-11-05T10:27:34.918Z,2.70
2022-11-05T10:30:04.700Z,2.80
2022-11-05T10:32:35.834Z,5.30
2022-11-05T10:35:08.883Z,5.50
2022-11-05T10:37:40.821Z,4.60
2022-11-05T10:40:45.902Z,14.60
2022-11-05T10:43:33.354Z,15.80
2022-11-05T10:46:32.897Z,4.90
2022-11-05T10:49:33.047Z,6.20
2022-11-05T10:52:22.336Z,19.10
2022-11-05T10:54:54.116Z,4.30
2022-11-05T10:57:33.012Z,5.10
2022-11-05T11:00:17.406Z,5.20
2022-11-05T11:02:49.760Z,6.30
2022-11-05T11:05:22.973Z,7.80
2022-11-05T11:08:12.659Z,6.30
2022-11-05T11:10:52.064Z,7.00
2022-11-05T11:13:30.134Z,10.20
2022-11-05T11:16:29.484Z,6.10
2022-11-05T11:19:01.282Z,7.30
2022-11-05T11:21:32.722Z,2.90
2022-11-05T11:24:04.109Z,7.00
2022-11-05T11:26:37.660Z,4.40
2022-11-05T11:29:20.460Z,3.70
2022-11-05T11:31:49.167Z,3.80
2022-11-05T11:34:27.884Z,4.20
2022-11-05T11:37:07.492Z,3.70
2022-11-05T11:39:44.560Z,3.20
2022-11-05T11:42:27.910Z,3.70
2022-11-05T11:44:59.527Z,3.30
2022-11-05T11:47:30.569Z,3.60
2022-11-05T11:50:02.600Z,4.60
2022-11-05T11:52:37.319Z,4.70
2022-11-05T11:55:12.089Z,4.40
2022-11-05T11:58:05.401Z,3.50
2022-11-05T12:00:46.960Z,3.60
2022-11-05T12:03:36.163Z,2.90
2022-11-05T12:06:13.746Z,4.00
2022-11-05T12:08:58.127Z,3.50
2022-11-05T12:11:40.223Z,3.70
2022-11-05T12:14:46.627Z,3.50
2022-11-05T12:17:27.463Z,4.00
2022-11-05T12:20:15.316Z,3.80
2022-11-05T12:22:53.029Z,7.00
2022-11-05T12:25:40.702Z,8.80
2022-11-05T12:28:17.945Z,7.90
2022-11-05T12:31:06.072Z,4.70
2022-11-05T12:33:52.879Z,4.40
2022-11-05T12:36:33.313Z,3.80
2022-11-05T12:42:02.827Z,4.00
2022-11-05T12:44:50.807Z,5.20
2022-11-05T12:47:52.101Z,4.90
2022-11-05T12:50:26.673Z,5.50
2022-11-05T12:53:33.298Z,5.80
2022-11-05T12:56:06.713Z,6.10
2022-11-05T12:58:40.528Z,8.30
2022-11-05T13:01:15.205Z,8.00
2022-11-05T13:04:09.145Z,3.10
2022-11-05T13:06:41.303Z,3.30
2022-11-05T13:09:19.148Z,4.20
2022-11-05T13:11:50.023Z,3.60
2022-11-05T13:14:24.183Z,5.00
2022-11-05T13:17:01.670Z,3.80
2022-11-05T13:19:42.210Z,3.30
2022-11-05T13:22:44.752Z,3.60
2022-11-05T13:25:22.749Z,2.90
2022-11-05T13:27:59.705Z,4.50
2022-11-05T13:30:38.880Z,3.30
2022-11-05T13:33:12.298Z,7.00
2022-11-05T13:36:15.562Z,3.80
2022-11-05T13:39:00.180Z,4.90
2022-11-05T13:41:40.278Z,4.00
2022-11-05T13:44:37.460Z,4.70
2022-11-05T13:47:16.284Z,4.60
2022-11-05T13:49:57.315Z,3.90
2022-11-05T13:52:45.082Z,4.10
2022-11-05T13:55:35.356Z,5.40
2022-11-05T13:58:04.578Z,5.50
2022-11-05T14:00:39.242Z,4.50
2022-11-05T14:03:18.849Z,4.10
2022-11-05T14:05:58.155Z,7.00
2022-11-05T14:08:29.210Z,8.90
2022-11-05T14:11:03.142Z,4.50
2022-11-05T14:13:32.400Z,9.70
2022-11-05T14:16:10.363Z,6.50
2022-11-05T14:18:41.267Z,5.20
2022-11-05T14:21:28.290Z,5.40
2022-11-05T14:24:19.801Z,4.00
2022-11-05T14:27:00.741Z,4.10
2022-11-05T14:29:44.620Z,3.70
2022-11-05T14:32:22.163Z,4.60
2022-11-05T14:35:01.419Z,6.40
2022-11-05T14:37:56.206Z,8.00
2022-11-05T14:40:42.617Z,9.80
2022-11-05T14:43:14.389Z,12.00
2022-11-05T14:46:06.562Z,9.10
2022-11-05T14:48:53.086Z,6.30
2022-11-05T14:51:38.396Z,8.10
2022-11-05T14:54:18.961Z,7.10
2022-11-05T14:56:56.321Z,8.30
2022-11-05T14:59:25.277Z,4.60
2022-11-05T15:02:04.353Z,4.70
2022-11-05T15:04:45.882Z,5.70
2022-11-05T15:07:33.927Z,5.40
2022-11-05T15:10:10.661Z,5.40
2022-11-05T15:12:48.118Z,8.60
2022-11-05T15:15:24.411Z,14.40
2022-11-05T15:18:06.905Z,18.70
2022-11-05T15:20:42.315Z,17.20
2022-11-05T15:23:18.364Z,11.80
2022-11-05T15:26:02.046Z,9.50
2022-11-05T15:28:54.565Z,8.00
2022-11-05T15:31:36.536Z,7.00
2022-11-05T15:34:20.098Z,5.80
2022-11-05T15:36:53.420Z,7.40
2022-11-05T15:39:30.520Z,7.20
2022-11-05T15:42:05.054Z,8.30
2022-11-05T15:44:39.659Z,8.90
2022-11-05T15:47:23.387Z,9.70
2022-11-05T15:49:57.713Z,10.30
2022-11-05T15:52:37.387Z,10.90
2022-11-05T15:55:26.760Z,11.50
2022-11-05T15:58:07.203Z,11.10
2022-11-05T16:00:37.064Z,11.80
2022-11-05T16:03:15.578Z,11.50
2022-11-05T16:05:48.154Z,9.70
2022-11-05T16:08:21.338Z,9.70
2022-11-05T16:10:53.568Z,8.80
2022-11-05T16:13:38.948Z,9.20
2022-11-05T16:16:31.682Z,9.20
2022-11-05T16:19:00.795Z,9.90
2022-11-05T16:21:29.638Z,10.90
2022-11-05T16:23:59.966Z,13.60
2022-11-05T16:27:01.691Z,13.00
2022-11-05T16:29:35.218Z,11.80
2022-11-05T16:32:14.846Z,13.00
2022-11-05T16:34:49.671Z,14.80
2022-11-05T16:37:21.542Z,12.90
2022-11-05T16:39:51.327Z,11.90
2022-11-05T16:42:38.133Z,11.70
2022-11-05T16:45:11.506Z,17.20
2022-11-05T16:47:40.090Z,17.00
2022-11-05T16:50:24.436Z,13.50
2022-11-05T16:52:53.234Z,12.30
2022-11-05T16:55:22.384Z,11.70
2022-11-05T16:57:55.669Z,9.90
2022-11-05T17:00:25.298Z,8.50
2022-11-05T17:02:54.048Z,6.70
2022-11-05T17:05:25.169Z,8.50
2022-11-05T17:07:55.430Z,8.60
2022-11-05T17:10:25.886Z,8.10
2022-11-05T17:12:54.686Z,8.10
2022-11-05T17:15:27.721Z,8.60
2022-11-05T17:17:57.041Z,10.00
2022-11-05T17:20:39.787Z,10.10
2022-11-05T17:23:15.051Z,10.80
2022-11-05T17:25:47.123Z,12.60
2022-11-05T17:28:17.015Z,10.30
2022-11-05T17:30:52.361Z,11.30
2022-11-05T17:33:23.446Z,10.80
2022-11-05T17:38:22.821Z,18.20
2022-11-05T17:40:52.331Z,20.60
2022-11-05T17:43:21.234Z,20.10
2022-11-05T17:45:52.648Z,16.30
2022-11-05T17:48:22.074Z,14.00
2022-11-05T17:50:51.381Z,10.60
2022-11-05T17:53:20.664Z,15.40
2022-11-05T17:55:49.811Z,15.40
2022-11-05T17:58:18.386Z,14.30
2022-11-05T18:00:47.956Z,13.40
2022-11-05T18:03:29.121Z,12.20
2022-11-05T18:06:20.250Z,12.70
2022-11-05T18:09:09.935Z,13.00
2022-11-05T18:11:57.418Z,10.70
2022-11-05T18:14:43.085Z,11.10
2022-11-05T18:17:31.144Z,10.30
2022-11-05T18:20:21.908Z,9.30
2022-11-05T18:23:07.650Z,9.40
2022-11-05T18:26:07.514Z,9.70
2022-11-05T18:28:59.430Z,9.10
2022-11-05T18:31:54.791Z,9.70
2022-11-05T18:34:45.793Z,10.20
2022-11-05T18:37:37.213Z,17.60
2022-11-05T18:43:21.301Z,22.70
2022-11-05T18:45:56.738Z,60.70
2022-11-05T18:48:25.871Z,78.70
2022-11-05T18:50:57.770Z,70.50
2022-11-05T18:53:30.874Z,82.70
2022-11-05T18:55:59.436Z,63.80
2022-11-05T18:58:27.986Z,72.70
2022-11-05T19:00:59.279Z,60.30
2022-11-05T19:03:31.474Z,52.50
2022-11-05T19:06:04.310Z,27.70
2022-11-05T19:08:33.885Z,25.20
2022-11-05T19:11:13.951Z,21.50
2022-11-05T19:13:43.722Z,49.90
2022-11-05T19:16:18.153Z,43.80
2022-11-05T19:18:47.327Z,20.40
2022-11-05T19:21:24.698Z,10.40
2022-11-05T19:23:54.140Z,13.30
2022-11-05T19:26:28.621Z,13.50
2022-11-05T19:29:00.347Z,13.40
2022-11-05T19:31:31.057Z,15.20
2022-11-05T19:34:01.330Z,16.60
2022-11-05T19:36:30.541Z,16.30
2022-11-05T19:39:05.158Z,17.30
2022-11-05T19:41:33.797Z,14.80
2022-11-05T19:48:00.327Z,32.50
2022-11-05T19:50:29.204Z,108.60
2022-11-05T19:52:57.814Z,41.40
2022-11-05T19:55:26.654Z,25.30
2022-11-05T19:57:55.663Z,21.80
2022-11-05T20:00:24.261Z,19.50
2022-11-05T20:02:53.159Z,16.80
2022-11-05T20:05:22.393Z,17.90
2022-11-05T20:07:53.031Z,14.50
2022-11-05T20:10:22.156Z,14.90
2022-11-05T20:12:51.502Z,10.40
2022-11-05T20:15:20.243Z,11.00
2022-11-05T20:17:53.044Z,10.50
2022-11-05T20:20:21.985Z,11.50
2022-11-05T20:22:52.736Z,12.90
2022-11-05T20:25:21.767Z,12.60
2022-11-05T20:27:51.150Z,10.00
2022-11-05T20:30:20.835Z,12.90
2022-11-05T20:32:56.897Z,21.80
2022-11-05T20:35:25.758Z,25.60
2022-11-05T20:37:54.678Z,26.30
2022-11-05T20:40:23.258Z,25.60
2022-11-05T20:42:52.500Z,26.60
2022-11-05T20:45:21.216Z,20.70
2022-11-05T20:47:50.150Z,22.10
2022-11-05T20:50:18.982Z,26.30
2022-11-05T20:52:47.848Z,21.20
2022-11-05T20:55:16.473Z,15.50
2022-11-05T20:57:45.375Z,11.00
2022-11-05T21:00:14.872Z,10.90
2022-11-05T21:02:43.597Z,11.00
2022-11-05T21:05:12.596Z,11.70
2022-11-05T21:07:41.513Z,13.90
2022-11-05T21:10:10.159Z,17.60
2022-11-05T21:12:40.541Z,19.60
2022-11-05T21:15:09.944Z,17.80
2022-11-05T21:17:38.581Z,16.40
2022-11-05T21:20:08.149Z,15.40
2022-11-05T21:22:36.760Z,14.70
2022-11-05T21:25:05.710Z,17.40
2022-11-05T21:27:34.770Z,16.90
2022-11-05T21:30:04.213Z,20.00
2022-11-05T21:32:32.849Z,22.10
2022-11-05T21:35:02.349Z,26.40
2022-11-05T21:37:31.931Z,23.30
2022-11-05T21:40:00.663Z,19.40
2022-11-05T21:42:30.263Z,17.10
2022-11-05T21:45:00.505Z,18.30
2022-11-05T21:47:29.720Z,15.10
2022-11-05T21:49:58.728Z,11.20
2022-11-05T21:52:45.969Z,12.20
2022-11-05T21:55:33.860Z,15.10
2022-11-05T21:58:28.483Z,11.50
2022-11-05T22:00:57.583Z,9.10
2022-11-05T22:03:26.590Z,10.60
2022-11-05T22:05:57.749Z,10.10
2022-11-05T22:08:27.604Z,10.60
2022-11-05T22:10:56.467Z,13.40
2022-11-05T22:13:25.388Z,13.40
2022-11-05T22:15:57.701Z,15.50
2022-11-05T22:18:26.531Z,15.60
2022-11-05T22:20:55.198Z,11.70
2022-11-05T22:23:23.769Z,16.30
2022-11-05T22:26:00.443Z,15.60
2022-11-05T22:28:29.637Z,17.70
2022-11-05T22:30:58.387Z,12.20
2022-11-05T22:33:27.056Z,12.90
2022-11-05T22:35:56.235Z,10.80
2022-11-05T22:38:24.918Z,11.00
2022-11-05T22:40:53.875Z,10.90
2022-11-05T22:43:23.112Z,13.80
2022-11-05T22:45:51.849Z,15.10
2022-11-05T22:48:20.597Z,14.20
2022-11-05T22:50:49.858Z,15.40
2022-11-05T22:53:18.332Z,12.90
2022-11-05T22:55:46.835Z,18.10
2022-11-05T22:58:16.084Z,16.90
2022-11-05T23:00:44.920Z,20.30
2022-11-05T23:03:13.731Z,22.00
2022-11-05T23:05:42.494Z,22.40
2022-11-05T23:08:29.754Z,21.60
2022-11-05T23:11:17.681Z,22.70
2022-11-05T23:13:46.259Z,17.50
2022-11-05T23:16:34.106Z,20.70
2022-11-05T23:19:21.512Z,14.20
2022-11-05T23:22:09.775Z,15.40
2022-11-05T23:24:38.468Z,14.50
2022-11-05T23:27:07.848Z,14.70
2022-11-05T23:29:36.660Z,13.90
2022-11-05T23:32:24.118Z,15.10
2022-11-05T23:34:54.813Z,13.80
2022-11-05T23:37:47.431Z,12.70
2022-11-05T23:40:28.611Z,13.60
2022-11-05T23:43:16.629Z,12.10
2022-11-05T23:45:58.023Z,11.20
2022-11-05T23:48:37.700Z,10.20
2022-11-05T23:51:10.636Z,9.80
2022-11-05T23:53:41.679Z,10.30
2022-11-05T23:56:13.496Z,10.00
2022-11-05T23:58:42.924Z,9.60
